Time;durP1;ratioP1;P1;durP2;ratioP2;P2;SDS_P1;SDS_P2;PMS_P1;PMS_P2;Temp;Humidity;BMP_temperature;BMP_pressure;BME280_temperature;BME280_humidity;BME280_pressure;Samples;Min_cycle;Max_cycle;Signal;HPM_P1;HPM_P2
2024/01/04 00:00:14;;;;;;;39.97;25.73;;;;;;;2.68;84.80;92760.63;523845;28;817;-68
2024/01/04 00:00:29;;;;;;;44.90;30.10;;;;;;;2.67;85.24;92770.03;523811;28;1070;-68
2024/01/04 00:00:45;;;;;;;48.80;33.73;;;;;;;2.67;84.41;92759.16;523737;28;845;-68
2024/01/04 00:01:00;;;;;;;50.08;33.42;;;;;;;2.69;84.63;92759.38;523749;28;837;-68
2024/01/04 00:01:16;;;;;;;45.87;30.60;;;;;;;2.69;84.61;92762.09;523646;28;912;-68
2024/01/04 00:01:34;;;;;;;39.70;28.63;;;;;;;2.72;84.67;92754.88;523739;28;952;-68
2024/01/04 00:01:49;;;;;;;42.38;28.33;;;;;;;2.75;84.44;92759.31;523761;28;853;-67
2024/01/04 00:02:05;;;;;;;42.43;27.70;;;;;;;2.76;84.43;92755.31;523762;28;872;-68
2024/01/04 00:02:20;;;;;;;41.85;27.85;;;;;;;2.77;83.97;92759.53;523826;28;841;-68
2024/01/04 00:02:36;;;;;;;42.97;28.27;;;;;;;2.78;84.40;92756.28;523560;28;761;-68
2024/01/04 00:02:52;;;;;;;37.03;26.85;;;;;;;2.79;84.13;92757.03;523721;28;1010;-68
2024/01/04 00:03:07;;;;;;;31.50;24.23;;;;;;;2.78;84.00;92756.28;523777;28;838;-68
2024/01/04 00:03:24;;;;;;;30.43;22.37;;;;;;;2.77;83.43;92760.25;523841;28;790;-68
2024/01/04 00:03:40;;;;;;;30.08;21.73;;;;;;;2.70;84.15;92752.69;523743;28;1112;-68
2024/01/04 00:03:55;;;;;;;27.98;21.42;;;;;;;2.75;84.30;92762.75;523607;28;1980;-68
2024/01/04 00:04:11;;;;;;;28.37;21.23;;;;;;;2.76;84.13;92760.78;523752;28;833;-68
2024/01/04 00:04:26;;;;;;;30.40;21.55;;;;;;;2.76;83.85;92764.25;525284;28;1191;-68
2024/01/04 00:04:42;;;;;;;28.90;20.40;;;;;;;2.76;83.78;92758.78;525878;28;806;-68
2024/01/04 00:04:57;;;;;;;25.50;18.30;;;;;;;2.78;83.87;92758.25;526045;28;888;-68
2024/01/04 00:05:13;;;;;;;23.13;17.97;;;;;;;2.78;83.86;92767.19;525933;28;750;-68
2024/01/04 00:05:28;;;;;;;24.40;18.70;;;;;;;2.81;84.07;92765.44;525661;28;1500;-68
2024/01/04 00:05:44;;;;;;;26.47;18.80;;;;;;;2.81;83.53;92759.97;525895;28;817;-68
2024/01/04 00:06:01;;;;;;;27.30;19.40;;;;;;;2.82;84.01;92761.44;525807;28;1015;-68
2024/01/04 00:06:19;;;;;;;31.55;21.33;;;;;;;2.84;83.62;92762.41;525848;28;1083;-68
2024/01/04 00:06:40;;;;;;;34.15;23.92;;;;;;;2.84;83.47;92759.66;525826;28;845;-68
2024/01/04 00:06:56;;;;;;;35.50;24.47;;;;;;;2.84;84.07;92762.41;525724;28;893;-68
2024/01/04 00:07:11;;;;;;;35.43;23.60;;;;;;;2.85;83.92;92761.16;525852;28;873;-68
2024/01/04 00:07:27;;;;;;;34.30;23.98;;;;;;;2.85;83.60;92755.69;525803;28;884;-68
2024/01/04 00:07:42;;;;;;;34.00;24.83;;;;;;;2.87;83.91;92766.09;525802;28;761;-68
2024/01/04 00:07:58;;;;;;;34.23;24.20;;;;;;;2.86;83.46;92762.63;525815;28;841;-68
2024/01/04 00:08:14;;;;;;;33.45;23.75;;;;;;;2.89;83.53;92760.84;525813;28;877;-68
2024/01/04 00:08:30;;;;;;;31.90;23.73;;;;;;;2.90;83.37;92759.59;525957;28;837;-68
2024/01/04 00:08:46;;;;;;;32.70;22.52;;;;;;;2.75;83.24;92740.94;525598;28;2432;-68
2024/01/04 00:09:01;;;;;;;32.72;22.35;;;;;;;2.82;83.15;92756.72;525664;28;960;-68
2024/01/04 00:09:17;;;;;;;31.98;22.33;;;;;;;2.74;83.18;92755.84;525677;28;825;-68
2024/01/04 00:09:32;;;;;;;30.73;21.63;;;;;;;2.66;82.89;92756.94;525613;28;828;-68
2024/01/04 00:09:48;;;;;;;31.30;22.43;;;;;;;2.57;83.37;92755.31;525723;28;818;-68
2024/01/04 00:10:04;;;;;;;32.42;23.02;;;;;;;2.47;82.70;92756.19;525630;28;789;-68
2024/01/04 00:10:20;;;;;;;32.63;22.70;;;;;;;2.43;83.50;92753.72;525663;28;928;-68
2024/01/04 00:10:36;;;;;;;32.42;23.63;;;;;;;2.38;83.24;92751.84;525719;28;876;-68
2024/01/04 00:10:52;;;;;;;30.17;23.05;;;;;;;2.32;83.61;92750.41;525853;28;1638;-68
2024/01/04 00:11:07;;;;;;;32.60;22.90;;;;;;;2.28;84.04;92747.97;525717;28;872;-68
2024/01/04 00:11:23;;;;;;;32.13;22.93;;;;;;;2.27;83.73;92746.50;525962;28;809;-68
2024/01/04 00:11:38;;;;;;;28.52;21.65;;;;;;;2.32;84.08;92747.69;525834;28;801;-68
2024/01/04 00:11:53;;;;;;;28.00;20.73;;;;;;;2.35;84.23;92755.56;525905;28;849;-68
2024/01/04 00:12:09;;;;;;;28.45;20.33;;;;;;;2.37;84.60;92753.06;525800;28;873;-68
2024/01/04 00:12:25;;;;;;;27.00;20.03;;;;;;;2.39;84.47;92749.81;525767;28;829;-68
2024/01/04 00:12:40;;;;;;;24.38;18.75;;;;;;;2.41;84.20;92758.22;525827;28;817;-68
2024/01/04 00:12:56;;;;;;;23.70;18.52;;;;;;;2.43;84.51;92759.19;525862;28;881;-68
2024/01/04 00:13:12;;;;;;;26.37;19.20;;;;;;;2.44;84.11;92754.47;525880;28;872;-68
2024/01/04 00:13:27;;;;;;;28.13;19.63;;;;;;;2.45;84.41;92762.13;525801;28;870;-68
2024/01/04 00:13:42;;;;;;;27.37;20.03;;;;;;;2.47;83.98;92762.34;525842;28;841;-68
2024/01/04 00:14:01;;;;;;;28.63;20.05;;;;;;;2.49;84.44;92757.13;525787;28;864;-68
2024/01/04 00:14:17;;;;;;;30.40;21.98;;;;;;;2.53;84.07;92762.31;525875;28;1026;-68
2024/01/04 00:14:32;;;;;;;29.60;21.83;;;;;;;2.46;83.82;92763.63;525882;28;777;-68
2024/01/04 00:14:47;;;;;;;30.90;21.40;;;;;;;2.39;84.11;92760.72;525841;28;983;-68
2024/01/04 00:15:04;;;;;;;26.73;20.38;;;;;;;2.26;84.02;92756.66;525790;28;833;-68
2024/01/04 00:15:19;;;;;;;25.92;19.27;;;;;;;2.13;84.33;92759.28;525796;28;907;-68
2024/01/04 00:15:34;;;;;;;29.97;20.63;;;;;;;2.03;84.99;92769.03;525846;28;861;-68
2024/01/04 00:15:50;;;;;;;30.88;21.25;;;;;;;1.89;84.97;92748.38;525912;28;853;-68
2024/01/04 00:16:12;;;;;;;28.17;20.60;;;;;;;2.01;85.41;92765.34;525780;28;781;-68
2024/01/04 00:16:28;;;;;;;28.98;22.85;;;;;;;2.02;85.43;92755.91;525790;28;892;-68
2024/01/04 00:16:43;;;;;;;31.00;23.10;;;;;;;2.06;85.56;92764.53;525914;28;793;-68
2024/01/04 00:16:58;;;;;;;31.20;22.70;;;;;;;2.09;85.88;92769.72;525773;28;845;-68
2024/01/04 00:17:14;;;;;;;29.88;22.92;;;;;;;2.15;85.54;92764.94;525849;28;777;-68
2024/01/04 00:17:30;;;;;;;28.63;22.57;;;;;;;2.20;85.82;92768.84;525825;28;897;-68
2024/01/04 00:17:45;;;;;;;30.50;23.10;;;;;;;2.24;85.85;92766.59;525762;28;944;-68
2024/01/04 00:18:03;;;;;;;30.80;22.97;;;;;;;2.28;85.66;92761.59;525773;28;797;-68
2024/01/04 00:18:19;;;;;;;29.92;22.45;;;;;;;2.32;85.06;92764.03;525781;28;1007;-68
2024/01/04 00:18:34;;;;;;;31.70;22.98;;;;;;;2.36;85.19;92767.94;525851;28;888;-68
2024/01/04 00:18:49;;;;;;;30.83;22.83;;;;;;;2.38;85.15;92764.72;526017;28;829;-68
2024/01/04 00:19:05;;;;;;;30.95;23.38;;;;;;;2.35;84.46;92754.81;526195;28;865;-68
2024/01/04 00:19:20;;;;;;;29.30;22.53;;;;;;;2.37;85.09;92757.78;526176;28;924;-68
2024/01/04 00:19:36;;;;;;;30.55;22.90;;;;;;;2.40;84.55;92762.22;526130;28;806;-68
2024/01/04 00:19:51;;;;;;;36.50;26.20;;;;;;;2.42;85.11;92760.44;526352;28;758;-68
2024/01/04 00:20:09;;;;;;;37.50;27.17;;;;;;;2.45;84.42;92764.13;526129;28;825;-68
2024/01/04 00:20:25;;;;;;;34.95;26.70;;;;;;;2.47;84.59;92764.38;526267;28;858;-68
2024/01/04 00:20:40;;;;;;;31.92;25.38;;;;;;;2.48;84.13;92763.09;526159;28;917;-68
2024/01/04 00:20:56;;;;;;;28.73;22.50;;;;;;;2.49;84.01;92759.13;526196;28;883;-68
2024/01/04 00:21:13;;;;;;;26.75;21.10;;;;;;;2.50;84.21;92771.50;526280;28;841;-68
2024/01/04 00:21:28;;;;;;;25.70;20.77;;;;;;;2.49;84.49;92761.84;526209;28;837;-68
2024/01/04 00:21:44;;;;;;;26.95;20.95;;;;;;;2.49;83.81;92759.13;526170;28;916;-68
2024/01/04 00:21:59;;;;;;;26.40;20.37;;;;;;;2.49;83.85;92768.03;526116;28;770;-68
2024/01/04 00:22:15;;;;;;;26.10;19.60;;;;;;;2.50;83.89;92766.03;526184;28;801;-68
2024/01/04 00:22:31;;;;;;;23.57;18.27;;;;;;;2.52;83.57;92766.25;526279;28;758;-68
2024/01/04 00:22:46;;;;;;;20.90;16.33;;;;;;;2.53;84.02;92767.75;526133;28;876;-68
2024/01/04 00:23:01;;;;;;;21.93;15.90;;;;;;;2.54;83.99;92766.50;526291;28;781;-68
2024/01/04 00:23:17;;;;;;;25.25;18.60;;;;;;;2.56;84.01;92770.19;526262;28;876;-68
2024/01/04 00:23:34;;;;;;;27.43;20.97;;;;;;;2.57;83.72;92774.38;526223;28;798;-68
2024/01/04 00:23:49;;;;;;;28.00;20.58;;;;;;;2.58;83.73;92769.69;526180;28;924;-68
2024/01/04 00:24:06;;;;;;;28.95;20.33;;;;;;;2.55;83.81;92774.16;526135;28;1965;-68
2024/01/04 00:24:22;;;;;;;31.00;20.67;;;;;;;2.55;83.64;92774.16;526234;28;932;-68
2024/01/04 00:24:37;;;;;;;29.50;20.83;;;;;;;2.55;83.42;92776.16;526213;28;778;-68
2024/01/04 00:24:52;;;;;;;27.90;21.23;;;;;;;2.55;83.50;92771.44;526154;28;765;-68
2024/01/04 00:25:09;;;;;;;26.08;19.83;;;;;;;2.57;83.49;92779.09;526212;28;841;-68
2024/01/04 00:25:25;;;;;;;21.65;17.20;;;;;;;2.57;83.46;92774.38;526238;28;896;-68
2024/01/04 00:25:40;;;;;;;20.47;16.63;;;;;;;2.57;83.39;92768.94;526267;28;957;-68
2024/01/04 00:25:56;;;;;;;21.25;16.80;;;;;;;2.58;83.22;92780.59;526205;28;885;-68
2024/01/04 00:26:11;;;;;;;20.00;16.27;;;;;;;2.60;83.61;92775.34;526176;28;789;-68
2024/01/04 00:26:27;;;;;;;19.95;15.77;;;;;;;2.59;83.20;92780.06;526188;28;837;-68
2024/01/04 00:26:42;;;;;;;20.30;16.00;;;;;;;2.60;83.64;92773.34;526212;28;777;-68
2024/01/04 00:26:57;;;;;;;18.60;16.30;;;;;;;2.61;83.45;92779.53;526249;28;873;-68
2024/01/04 00:27:13;;;;;;;20.23;16.55;;;;;;;2.59;83.38;92771.88;526248;28;924;-68
2024/01/04 00:27:28;;;;;;;21.30;16.50;;;;;;;2.63;82.94;92783.22;524984;28;1151;-68
2024/01/04 00:27:46;;;;;;;22.50;17.70;;;;;;;2.63;83.09;92780.50;524123;28;826;-68
2024/01/04 00:28:02;;;;;;;24.80;18.48;;;;;;;2.65;83.18;92782.72;524147;28;830;-68
2024/01/04 00:28:17;;;;;;;25.00;17.58;;;;;;;2.64;83.45;92781.97;524081;28;790;-68
2024/01/04 00:28:33;;;;;;;23.27;17.23;;;;;;;2.65;83.28;92780.72;524185;28;884;-68
2024/01/04 00:28:48;;;;;;;25.40;18.10;;;;;;;2.67;82.97;92780.19;524112;28;888;-68
2024/01/04 00:29:04;;;;;;;27.08;19.17;;;;;;;2.67;83.07;92780.94;524040;28;822;-68
2024/01/04 00:29:19;;;;;;;27.53;19.87;;;;;;;2.69;83.40;92780.44;524107;28;860;-68
2024/01/04 00:29:34;;;;;;;29.93;20.80;;;;;;;2.69;83.06;92785.88;524119;28;865;-68
2024/01/04 00:29:50;;;;;;;32.90;21.92;;;;;;;2.70;82.92;92782.66;524176;28;794;-68
2024/01/04 00:30:06;;;;;;;29.60;20.93;;;;;;;2.61;83.02;92769.38;524033;28;837;-68
2024/01/04 00:30:21;;;;;;;24.50;19.13;;;;;;;2.72;83.21;92790.31;524178;28;903;-68
2024/01/04 00:30:37;;;;;;;26.38;19.40;;;;;;;2.73;83.27;92789.06;524134;28;853;-68
2024/01/04 00:30:53;;;;;;;30.10;20.45;;;;;;;2.74;82.72;92788.56;524138;28;833;-68
2024/01/04 00:31:08;;;;;;;28.00;20.30;;;;;;;2.75;82.88;92787.28;524076;28;901;-68
2024/01/04 00:31:24;;;;;;;24.40;19.65;;;;;;;2.77;82.54;92786.78;524244;28;813;-68
2024/01/04 00:31:41;;;;;;;23.90;19.37;;;;;;;2.76;82.95;92786.03;524117;28;798;-68
2024/01/04 00:31:56;;;;;;;25.17;19.95;;;;;;;2.78;82.53;92783.53;524119;28;865;-68
2024/01/04 00:32:12;;;;;;;25.38;19.63;;;;;;;2.72;82.42;92782.88;524144;28;841;-68
2024/01/04 00:32:27;;;;;;;26.00;19.57;;;;;;;2.67;82.61;92786.41;524128;28;857;-68
2024/01/04 00:32:43;;;;;;;26.52;19.70;;;;;;;2.62;82.52;92779.03;524186;28;868;-68
2024/01/04 00:32:58;;;;;;;24.47;18.50;;;;;;;2.59;82.39;92785.50;523970;28;846;-68
2024/01/04 00:33:14;;;;;;;23.13;17.92;;;;;;;2.61;82.85;92787.72;524055;28;885;-68
2024/01/04 00:33:29;;;;;;;21.77;17.10;;;;;;;2.62;82.26;92784.47;524111;28;935;-68
2024/01/04 00:33:45;;;;;;;20.42;16.58;;;;;;;2.63;82.79;92785.22;524115;28;786;-68
2024/01/04 00:34:00;;;;;;;22.00;17.43;;;;;;;2.65;82.85;92782.72;524051;28;806;-68
2024/01/04 00:34:16;;;;;;;22.38;17.00;;;;;;;2.64;82.48;92781.97;524064;28;820;-68
2024/01/04 00:34:31;;;;;;;25.80;18.30;;;;;;;2.61;82.78;92777.56;524119;28;774;-68
2024/01/04 00:34:47;;;;;;;32.13;20.70;;;;;;;2.57;82.19;92779.09;524085;28;829;-68
2024/01/04 00:35:02;;;;;;;31.20;20.87;;;;;;;2.48;82.38;92776.72;524106;28;915;-68
2024/01/04 00:35:18;;;;;;;28.55;20.67;;;;;;;2.36;82.27;92781.53;524084;28;865;-68
2024/01/04 00:35:33;;;;;;;27.97;20.13;;;;;;;2.32;82.58;92772.22;524147;28;810;-68
2024/01/04 00:35:48;;;;;;;25.27;19.02;;;;;;;2.27;82.73;92782.63;524002;28;1085;-68
2024/01/04 00:36:05;;;;;;;25.30;19.03;;;;;;;2.16;83.01;92779.31;524152;28;849;-68
2024/01/04 00:36:20;;;;;;;25.48;18.88;;;;;;;2.07;83.44;92776.91;524145;28;853;-68
2024/01/04 00:36:35;;;;;;;23.63;17.95;;;;;;;2.01;83.30;92776.25;524073;28;884;-68
2024/01/04 00:36:51;;;;;;;24.03;18.27;;;;;;;1.94;83.93;92774.06;524172;28;775;-68
2024/01/04 00:37:06;;;;;;;26.77;19.73;;;;;;;1.90;84.09;92768.91;524047;28;868;-68
2024/01/04 00:37:22;;;;;;;27.90;21.50;;;;;;;1.89;84.44;92763.97;524109;28;781;-68
2024/01/04 00:37:37;;;;;;;29.87;22.90;;;;;;;1.64;84.66;92733.28;524067;28;857;-68
2024/01/04 00:37:53;;;;;;;30.80;21.85;;;;;;;1.88;85.21;92767.94;524090;28;1060;-68
2024/01/04 00:38:08;;;;;;;28.37;18.67;;;;;;;1.91;84.99;92770.38;524061;28;861;-68
2024/01/04 00:38:24;;;;;;;25.48;18.10;;;;;;;1.95;84.60;92765.38;524130;28;837;-68
2024/01/04 00:38:39;;;;;;;24.00;18.73;;;;;;;1.98;84.88;92769.81;524036;28;908;-68
2024/01/04 00:38:54;;;;;;;23.25;18.40;;;;;;;2.03;84.46;92765.56;524119;28;833;-68
2024/01/04 00:39:10;;;;;;;22.37;17.37;;;;;;;2.05;84.40;92765.78;524097;28;814;-68
2024/01/04 00:39:25;;;;;;;24.15;17.83;;;;;;;2.09;84.51;92768.97;524116;28;880;-69
2024/01/04 00:39:41;;;;;;;24.73;18.43;;;;;;;2.12;84.59;92765.25;524138;28;786;-68
2024/01/04 00:39:56;;;;;;;24.95;19.40;;;;;;;2.16;84.63;92771.13;524144;28;908;-68
2024/01/04 00:40:12;;;;;;;25.87;20.40;;;;;;;2.19;84.87;92770.09;524073;28;821;-69
2024/01/04 00:40:30;;;;;;;26.23;20.20;;;;;;;2.21;84.47;92771.06;524098;28;794;-69
2024/01/04 00:40:46;;;;;;;24.40;19.25;;;;;;;2.18;84.00;92763.19;524092;28;852;-69
2024/01/04 00:41:02;;;;;;;21.63;17.67;;;;;;;2.18;83.96;92761.22;524103;28;1168;-69
2024/01/04 00:41:17;;;;;;;23.55;17.60;;;;;;;2.18;83.57;92757.75;524096;28;790;-68
2024/01/04 00:41:32;;;;;;;24.58;18.38;;;;;;;2.14;83.49;92760.72;524002;28;857;-68
2024/01/04 00:41:48;;;;;;;23.03;18.03;;;;;;;2.12;83.95;92757.06;524038;28;845;-68
2024/01/04 00:42:04;;;;;;;20.70;16.70;;;;;;;2.11;83.73;92763.75;524143;28;1068;-68
2024/01/04 00:42:19;;;;;;;19.07;15.60;;;;;;;2.11;83.61;92759.03;524087;28;777;-68
2024/01/04 00:42:35;;;;;;;18.23;15.52;;;;;;;2.12;83.80;92760.50;524139;28;810;-68
2024/01/04 00:42:51;;;;;;;18.02;15.32;;;;;;;2.15;83.77;92754.06;524090;28;853;-68
2024/01/04 00:43:06;;;;;;;18.63;14.13;;;;;;;2.19;83.74;92764.66;523952;28;778;-68
2024/01/04 00:43:21;;;;;;;20.55;14.57;;;;;;;2.22;83.52;92763.63;524193;28;881;-68
2024/01/04 00:43:37;;;;;;;21.50;15.10;;;;;;;2.23;83.62;92760.38;524023;28;845;-68
2024/01/04 00:43:53;;;;;;;20.52;15.43;;;;;;;2.24;83.84;92750.25;524212;28;841;-68
2024/01/04 00:44:08;;;;;;;20.30;16.50;;;;;;;2.21;83.47;92764.88;523946;28;1969;-68
2024/01/04 00:44:24;;;;;;;21.90;17.40;;;;;;;2.13;83.25;92759.28;524115;28;936;-68
2024/01/04 00:44:39;;;;;;;22.52;18.08;;;;;;;2.08;83.31;92759.34;524095;28;786;-68
2024/01/04 00:44:55;;;;;;;21.70;17.30;;;;;;;1.99;83.16;92757.66;524120;28;905;-68
2024/01/04 00:45:10;;;;;;;20.67;16.40;;;;;;;1.97;83.75;92762.19;524097;28;754;-68
2024/01/04 00:45:25;;;;;;;20.60;16.00;;;;;;;1.94;83.70;92760.47;524127;28;876;-68
2024/01/04 00:45:41;;;;;;;21.53;16.20;;;;;;;1.92;84.14;92754.78;524066;28;774;-68
2024/01/04 00:45:56;;;;;;;21.23;16.05;;;;;;;1.93;83.72;92761.69;524066;28;936;-68
2024/01/04 00:46:12;;;;;;;18.73;14.83;;;;;;;1.95;84.31;92754.50;523826;28;1346;-68
2024/01/04 00:46:27;;;;;;;18.45;15.07;;;;;;;1.99;84.03;92763.13;523919;28;857;-68
2024/01/04 00:46:43;;;;;;;20.23;16.17;;;;;;;2.02;83.95;92761.34;523944;28;798;-68
2024/01/04 00:46:59;;;;;;;21.77;17.42;;;;;;;2.05;84.13;92768.53;523790;28;841;-68
2024/01/04 00:47:14;;;;;;;24.23;18.27;;;;;;;2.08;83.83;92764.78;523955;28;790;-68
2024/01/04 00:47:30;;;;;;;23.65;17.05;;;;;;;2.11;84.33;92763.75;523965;28;822;-68
2024/01/04 00:47:45;;;;;;;21.50;16.07;;;;;;;2.07;84.01;92757.84;523871;28;912;-68
2024/01/04 00:48:02;;;;;;;19.95;15.57;;;;;;;2.13;83.32;92766.69;523921;28;836;-68
2024/01/04 00:48:17;;;;;;;20.20;15.25;;;;;;;2.15;83.94;92770.38;524081;28;989;-68
2024/01/04 00:48:32;;;;;;;20.70;15.57;;;;;;;2.14;83.54;92768.19;524078;28;865;-68
2024/01/04 00:48:48;;;;;;;20.10;15.70;;;;;;;2.15;83.06;92769.66;524078;28;829;-68
2024/01/04 00:49:03;;;;;;;20.13;14.90;;;;;;;2.15;83.30;92769.66;524058;28;1041;-68
2024/01/04 00:49:19;;;;;;;20.17;14.80;;;;;;;2.16;83.46;92771.88;524091;28;912;-68
2024/01/04 00:49:34;;;;;;;18.98;14.82;;;;;;;2.19;83.13;92773.56;524129;28;1105;-68
2024/01/04 00:49:50;;;;;;;21.07;16.67;;;;;;;2.19;83.61;92768.13;524036;28;861;-68
2024/01/04 00:50:06;;;;;;;25.33;19.80;;;;;;;2.23;82.92;92765.13;524060;28;802;-68
2024/01/04 00:50:21;;;;;;;28.05;21.38;;;;;;;2.24;83.06;92766.59;524142;28;773;-68
2024/01/04 00:50:37;;;;;;;30.40;23.57;;;;;;;2.25;83.26;92771.50;524054;28;786;-68
2024/01/04 00:50:52;;;;;;;31.50;24.38;;;;;;;2.26;82.74;92764.81;524155;28;959;-68
2024/01/04 00:51:08;;;;;;;30.23;22.60;;;;;;;2.28;83.19;92773.22;523942;28;810;-68
2024/01/04 00:51:23;;;;;;;30.10;21.65;;;;;;;2.29;82.66;92763.81;524126;28;860;-68
2024/01/04 00:51:39;;;;;;;30.13;21.47;;;;;;;2.30;83.06;92773.44;524076;28;821;-68
2024/01/04 00:51:55;;;;;;;30.25;21.23;;;;;;;2.32;83.08;92767.47;524143;28;932;-68
2024/01/04 00:52:10;;;;;;;30.90;20.77;;;;;;;2.33;82.83;92766.25;524092;28;864;-68
2024/01/04 00:52:26;;;;;;;29.33;20.53;;;;;;;2.34;82.60;92764.97;524057;28;829;-68
2024/01/04 00:52:41;;;;;;;26.88;20.63;;;;;;;2.34;82.29;92764.97;524093;28;805;-68
2024/01/04 00:52:57;;;;;;;31.63;23.27;;;;;;;2.36;82.70;92767.22;524014;28;965;-68
2024/01/04 00:53:13;;;;;;;35.90;24.73;;;;;;;2.37;82.19;92765.94;523969;28;869;-68
2024/01/04 00:53:28;;;;;;;36.63;25.58;;;;;;;2.37;82.22;92769.41;524043;28;833;-68
2024/01/04 00:53:44;;;;;;;34.20;25.10;;;;;;;2.37;82.59;92763.97;524043;28;872;-68
2024/01/04 00:53:59;;;;;;;29.02;21.50;;;;;;;2.39;81.91;92772.34;523932;28;900;-68
2024/01/04 00:54:15;;;;;;;29.50;20.37;;;;;;;2.40;82.01;92773.09;524080;28;798;-68
2024/01/04 00:54:31;;;;;;;28.98;20.70;;;;;;;2.38;81.82;92770.91;524106;28;903;-68
2024/01/04 00:54:46;;;;;;;28.30;21.02;;;;;;;2.38;82.05;92775.59;524002;28;857;-68
2024/01/04 00:55:02;;;;;;;29.33;20.80;;;;;;;2.38;82.35;92781.78;524152;28;801;-68
2024/01/04 00:55:17;;;;;;;33.47;21.42;;;;;;;2.39;81.82;92782.50;524051;28;1095;-68
2024/01/04 00:55:32;;;;;;;32.03;22.30;;;;;;;2.37;82.34;92776.84;524043;28;951;-68
2024/01/04 00:55:48;;;;;;;33.27;23.77;;;;;;;2.37;81.82;92774.13;524056;28;781;-68
2024/01/04 00:56:04;;;;;;;32.47;23.03;;;;;;;2.38;81.82;92783.78;524029;28;761;-68
2024/01/04 00:56:19;;;;;;;27.50;20.73;;;;;;;2.37;81.76;92783.03;524095;28;786;-68
2024/01/04 00:56:35;;;;;;;28.77;21.80;;;;;;;2.17;81.76;92751.56;524009;28;919;-68
2024/01/04 00:56:51;;;;;;;29.95;23.23;;;;;;;2.39;81.79;92772.34;524182;28;927;-68
2024/01/04 00:57:06;;;;;;;33.73;23.83;;;;;;;2.40;81.65;92782.03;523986;28;845;-68
2024/01/04 00:57:22;;;;;;;33.43;23.37;;;;;;;2.42;82.06;92776.78;524097;28;789;-68
2024/01/04 00:57:37;;;;;;;29.02;21.60;;;;;;;2.42;81.39;92781.50;524006;28;1066;-68
2024/01/04 00:57:53;;;;;;;28.23;21.07;;;;;;;2.32;81.42;92774.94;524164;28;770;-68
2024/01/04 00:58:08;;;;;;;28.35;21.20;;;;;;;2.28;81.32;92780.66;523584;28;1386;-68
2024/01/04 00:58:24;;;;;;;29.33;20.97;;;;;;;2.11;81.39;92764.50;523955;28;817;-68
2024/01/04 00:58:39;;;;;;;29.02;21.13;;;;;;;2.14;81.98;92779.06;523831;28;892;-68
2024/01/04 00:58:54;;;;;;;27.17;20.37;;;;;;;2.10;81.82;92779.34;523925;28;825;-68
2024/01/04 00:59:10;;;;;;;27.92;19.80;;;;;;;2.08;81.87;92779.13;523908;28;841;-68
2024/01/04 00:59:26;;;;;;;32.03;20.33;;;;;;;2.11;82.09;92783.56;523909;28;794;-68
2024/01/04 00:59:41;;;;;;;32.70;21.08;;;;;;;2.13;82.15;92788.47;523969;28;825;-68
2024/01/04 00:59:56;;;;;;;28.23;20.13;;;;;;;2.13;82.25;92781.06;523869;28;806;-68
2024/01/04 01:00:13;;;;;;;28.42;19.73;;;;;;;2.16;81.96;92788.22;524070;28;867;-68
2024/01/04 01:00:28;;;;;;;26.77;20.23;;;;;;;2.19;82.21;92784.44;524069;28;829;-68
2024/01/04 01:00:44;;;;;;;24.97;20.70;;;;;;;2.20;82.37;92785.19;524099;28;950;-68
2024/01/04 01:00:59;;;;;;;25.33;20.88;;;;;;;2.23;81.81;92781.47;523961;28;845;-68
2024/01/04 01:01:15;;;;;;;28.63;21.77;;;;;;;2.25;82.06;92785.13;523903;28;748;-68
2024/01/04 01:01:33;;;;;;;30.48;21.85;;;;;;;2.23;82.02;92779.47;523920;28;885;-68
2024/01/04 01:01:49;;;;;;;29.10;21.70;;;;;;;2.17;81.85;92786.22;523846;28;987;-68
2024/01/04 01:02:05;;;;;;;28.53;22.00;;;;;;;2.13;81.47;92781.06;523911;28;881;-68
2024/01/04 01:02:21;;;;;;;26.35;20.20;;;;;;;2.11;81.94;92780.09;523936;28;825;-68
2024/01/04 01:02:36;;;;;;;26.83;20.15;;;;;;;2.10;81.65;92786.78;523829;28;782;-68
2024/01/04 01:02:51;;;;;;;27.93;20.83;;;;;;;2.11;81.78;92789.00;523963;28;943;-68
2024/01/04 01:03:07;;;;;;;26.10;20.98;;;;;;;2.12;82.15;92792.47;523902;28;876;-68
2024/01/04 01:03:22;;;;;;;26.10;21.03;;;;;;;2.15;81.98;92785.97;524042;28;830;-68
2024/01/04 01:03:38;;;;;;;26.60;20.27;;;;;;;2.15;81.66;92785.97;525398;28;1100;-68
2024/01/04 01:03:53;;;;;;;26.23;20.07;;;;;;;2.16;82.25;92782.03;526169;28;1145;-68
2024/01/04 01:04:09;;;;;;;30.03;21.20;;;;;;;2.17;81.65;92788.94;526000;28;1921;-68
2024/01/04 01:04:24;;;;;;;32.75;21.77;;;;;;;2.20;81.59;92787.91;524807;28;1186;-68
2024/01/04 01:04:40;;;;;;;28.77;20.52;;;;;;;2.20;81.71;92788.66;524073;28;912;-68
2024/01/04 01:04:55;;;;;;;25.67;19.93;;;;;;;2.21;81.76;92784.69;523958;28;1059;-68
2024/01/04 01:05:11;;;;;;;25.58;18.83;;;;;;;2.22;81.80;92790.88;524039;28;849;-68
2024/01/04 01:05:26;;;;;;;25.97;17.97;;;;;;;2.22;81.44;92780.72;524092;28;798;-68
2024/01/04 01:05:42;;;;;;;23.83;18.15;;;;;;;2.22;81.53;92791.63;524112;28;1023;-68
2024/01/04 01:05:57;;;;;;;23.40;18.00;;;;;;;2.21;81.43;92786.66;524055;28;831;-68
2024/01/04 01:06:13;;;;;;;24.47;17.47;;;;;;;2.22;81.71;92790.88;524039;28;840;-68
2024/01/04 01:06:28;;;;;;;25.73;18.02;;;;;;;2.22;81.24;92788.16;523934;28;896;-68
2024/01/04 01:06:43;;;;;;;28.23;19.37;;;;;;;2.22;81.34;92779.97;524102;28;1112;-68
2024/01/04 01:06:59;;;;;;;29.65;20.08;;;;;;;2.24;81.72;92782.91;523989;28;1022;-68
2024/01/04 01:07:14;;;;;;;29.87;20.97;;;;;;;2.25;81.35;92782.41;524084;28;869;-68
2024/01/04 01:07:30;;;;;;;28.13;21.40;;;;;;;2.26;81.36;92778.44;524085;28;821;-68
2024/01/04 01:07:45;;;;;;;26.90;20.77;;;;;;;2.27;81.92;92777.19;523991;28;857;-68
2024/01/04 01:08:01;;;;;;;27.43;20.77;;;;;;;2.17;81.62;92767.88;524074;28;862;-68
2024/01/04 01:08:17;;;;;;;30.60;20.98;;;;;;;2.30;81.49;92780.88;523913;28;849;-68
2024/01/04 01:08:32;;;;;;;28.83;20.35;;;;;;;2.30;81.17;92778.91;524127;28;785;-68
2024/01/04 01:08:48;;;;;;;26.60;20.08;;;;;;;2.33;81.32;92781.84;524028;28;849;-68
2024/01/04 01:09:03;;;;;;;26.87;19.93;;;;;;;2.32;81.30;92783.09;523976;28;809;-68
2024/01/04 01:09:19;;;;;;;27.40;20.07;;;;;;;2.30;81.18;92787.06;524045;28;826;-68
2024/01/04 01:09:34;;;;;;;29.87;21.27;;;;;;;2.29;81.27;92784.88;524088;28;824;-68
2024/01/04 01:09:50;;;;;;;29.67;21.43;;;;;;;2.14;81.57;92770.91;524064;28;814;-68
2024/01/04 01:10:05;;;;;;;28.63;21.33;;;;;;;2.28;81.30;92783.38;524001;28;985;-68
2024/01/04 01:10:21;;;;;;;31.77;22.80;;;;;;;2.22;81.34;92777.25;524149;28;762;-68
2024/01/04 01:10:37;;;;;;;35.60;24.97;;;;;;;2.24;81.13;92778.22;523916;28;789;-68
2024/01/04 01:10:52;;;;;;;36.08;25.92;;;;;;;2.30;81.37;92787.06;524047;28;782;-68
2024/01/04 01:11:08;;;;;;;32.95;25.17;;;;;;;2.31;81.24;92787.81;524040;28;770;-68
2024/01/04 01:11:24;;;;;;;31.67;23.83;;;;;;;2.33;81.06;92788.03;524018;28;897;-68
2024/01/04 01:11:39;;;;;;;31.90;22.33;;;;;;;2.34;80.84;92786.06;524020;28;841;-68
2024/01/04 01:11:55;;;;;;;30.17;21.90;;;;;;;2.34;80.98;92786.78;523930;28;1058;-68
2024/01/04 01:12:10;;;;;;;28.17;20.50;;;;;;;2.36;80.62;92783.56;524047;28;793;-68
2024/01/04 01:12:25;;;;;;;26.70;19.70;;;;;;;2.37;80.87;92785.75;524047;28;881;-68
2024/01/04 01:12:41;;;;;;;26.00;19.80;;;;;;;2.38;80.64;92795.41;524091;28;810;-69
2024/01/04 01:12:57;;;;;;;26.40;19.83;;;;;;;2.36;80.52;92783.56;524015;28;1264;-69
2024/01/04 01:13:12;;;;;;;27.17;20.20;;;;;;;2.38;81.14;92783.78;523993;28;802;-69
2024/01/04 01:13:27;;;;;;;25.95;19.42;;;;;;;2.38;81.02;92786.50;523912;28;1082;-70
2024/01/04 01:13:43;;;;;;;23.20;17.67;;;;;;;2.39;80.47;92783.25;524103;28;797;-69
2024/01/04 01:13:58;;;;;;;22.63;17.70;;;;;;;2.40;80.86;92794.91;523947;28;797;-69
2024/01/04 01:14:14;;;;;;;23.63;17.15;;;;;;;2.38;80.16;92776.34;524092;28;881;-69
2024/01/04 01:14:29;;;;;;;21.67;15.37;;;;;;;2.35;80.43;92776.63;524000;28;801;-69
2024/01/04 01:14:45;;;;;;;20.10;15.60;;;;;;;2.31;80.19;92782.38;523944;28;786;-69
2024/01/04 01:15:00;;;;;;;22.10;16.03;;;;;;;2.28;80.57;92783.38;524092;28;833;-69
2024/01/04 01:15:15;;;;;;;21.73;15.80;;;;;;;2.21;80.52;92792.09;524024;28;794;-69
2024/01/04 01:15:31;;;;;;;22.60;16.60;;;;;;;2.18;80.56;92793.88;524130;28;849;-69